createdAt,value
2019-04-28T00:00:42.594Z,12.03
2019-04-28T00:03:11.569Z,12.30
2019-04-28T00:05:41.529Z,12.37
2019-04-28T00:08:10.934Z,11.80
2019-04-28T00:10:41.719Z,12.90
2019-04-28T00:13:11.050Z,13.00
2019-04-28T00:15:41.561Z,13.33
2019-04-28T00:18:11.895Z,13.13
2019-04-28T00:20:50.962Z,13.03
2019-04-28T00:23:39.143Z,12.70
2019-04-28T00:26:16.994Z,12.97
2019-04-28T00:28:45.979Z,13.20
2019-04-28T00:31:14.977Z,13.40
2019-04-28T00:33:43.954Z,13.70
2019-04-28T00:36:13.292Z,13.33
2019-04-28T00:38:42.214Z,12.90
2019-04-28T00:41:11.093Z,12.27
2019-04-28T00:43:41.699Z,12.43
2019-04-28T00:46:12.451Z,13.47
2019-04-28T00:48:41.379Z,12.67
2019-04-28T00:51:11.584Z,12.40
2019-04-28T00:53:40.943Z,12.50
2019-04-28T00:56:11.749Z,13.40
2019-04-28T00:58:41.723Z,14.00
2019-04-28T01:01:14.568Z,14.00
2019-04-28T01:03:43.500Z,13.70
2019-04-28T01:06:14.080Z,14.20
2019-04-28T01:08:43.179Z,14.33
2019-04-28T01:11:12.081Z,14.00
2019-04-28T01:13:41.925Z,14.07
2019-04-28T01:16:19.327Z,13.57
2019-04-28T01:18:53.524Z,13.27
2019-04-28T01:21:24.780Z,13.87
2019-04-28T01:23:53.947Z,13.83
2019-04-28T01:26:23.095Z,14.73
2019-04-28T01:28:51.967Z,15.03
2019-04-28T01:31:39.650Z,15.33
2019-04-28T01:34:20.374Z,15.10
2019-04-28T01:36:51.417Z,15.60
2019-04-28T01:39:20.242Z,15.27
2019-04-28T01:41:49.596Z,15.57
2019-04-28T01:44:19.865Z,15.37
2019-04-28T01:46:49.623Z,15.40
2019-04-28T01:49:19.643Z,16.00
2019-04-28T01:52:00.720Z,16.43
2019-04-28T01:54:30.235Z,17.07
2019-04-28T01:57:01.441Z,17.10
2019-04-28T01:59:30.480Z,16.57
2019-04-28T02:02:00.117Z,16.10
2019-04-28T02:04:32.149Z,17.30
2019-04-28T02:07:00.039Z,16.83
2019-04-28T02:09:29.590Z,17.20
2019-04-28T02:12:00.674Z,17.67
2019-04-28T02:14:30.845Z,17.13
2019-04-28T02:17:00.508Z,17.00
2019-04-28T02:19:32.679Z,17.43
2019-04-28T02:22:06.136Z,17.70
2019-04-28T02:24:35.538Z,17.33
2019-04-28T02:27:04.728Z,17.80
2019-04-28T02:29:34.241Z,17.67
2019-04-28T02:32:03.786Z,18.00
2019-04-28T02:34:32.588Z,17.80
2019-04-28T02:37:02.019Z,17.53
2019-04-28T02:39:31.564Z,18.70
2019-04-28T02:42:01.637Z,18.20
2019-04-28T02:44:34.404Z,17.60
2019-04-28T02:47:01.389Z,17.17
2019-04-28T02:49:55.895Z,17.33
2019-04-28T02:52:43.894Z,17.67
2019-04-28T02:55:12.785Z,18.60
2019-04-28T02:57:42.274Z,18.50
2019-04-28T03:00:11.317Z,18.10
2019-04-28T03:02:41.342Z,18.67
2019-04-28T03:05:11.660Z,18.17
2019-04-28T03:07:41.369Z,17.70
2019-04-28T03:10:11.313Z,18.20
2019-04-28T03:12:41.447Z,18.53
2019-04-28T03:15:11.053Z,18.33
2019-04-28T03:17:40.785Z,18.17
2019-04-28T03:20:11.011Z,17.47
2019-04-28T03:22:41.109Z,17.87
2019-04-28T03:25:15.683Z,17.77
2019-04-28T03:27:55.920Z,17.80
2019-04-28T03:30:54.123Z,17.43
2019-04-28T03:33:25.569Z,17.63
2019-04-28T03:35:53.641Z,17.50
2019-04-28T03:38:22.566Z,16.80
2019-04-28T03:40:51.495Z,17.10
2019-04-28T03:43:21.262Z,17.63
2019-04-28T03:45:55.085Z,16.87
2019-04-28T03:48:24.360Z,16.50
2019-04-28T03:50:53.214Z,18.03
2019-04-28T03:53:22.169Z,17.20
2019-04-28T03:55:51.443Z,17.57
2019-04-28T03:58:24.242Z,18.13
2019-04-28T04:00:53.029Z,18.37
2019-04-28T04:03:21.962Z,18.00
2019-04-28T04:05:51.199Z,19.20
2019-04-28T04:08:21.106Z,19.27
2019-04-28T04:11:05.910Z,18.83
2019-04-28T04:13:45.795Z,19.53
2019-04-28T04:16:24.195Z,19.07
2019-04-28T04:18:54.644Z,19.30
2019-04-28T04:21:23.753Z,19.33
2019-04-28T04:23:52.511Z,18.70
2019-04-28T04:26:22.379Z,19.20
2019-04-28T04:28:51.768Z,19.87
2019-04-28T04:31:20.837Z,20.03
2019-04-28T04:33:50.586Z,20.50
2019-04-28T04:36:21.069Z,19.20
2019-04-28T04:38:51.738Z,20.13
2019-04-28T04:41:21.052Z,19.40
2019-04-28T04:43:51.228Z,21.17
2019-04-28T04:46:23.336Z,18.50
2019-04-28T04:48:52.230Z,19.50
2019-04-28T04:51:21.589Z,20.80
2019-04-28T04:53:51.893Z,21.27
2019-04-28T04:56:21.542Z,20.93
2019-04-28T04:58:50.857Z,20.90
2019-04-28T05:01:46.119Z,20.77
2019-04-28T05:04:29.607Z,21.10
2019-04-28T05:06:59.676Z,19.97
2019-04-28T05:09:29.560Z,22.13
2019-04-28T05:11:59.804Z,21.30
2019-04-28T05:14:29.908Z,20.10
2019-04-28T05:17:00.674Z,19.77
2019-04-28T05:19:29.851Z,20.73
2019-04-28T05:21:59.999Z,20.03
2019-04-28T05:24:52.995Z,19.93
2019-04-28T05:27:23.942Z,19.13
2019-04-28T05:29:51.143Z,20.07
2019-04-28T05:32:20.515Z,20.30
2019-04-28T05:34:52.633Z,19.83
2019-04-28T05:37:21.201Z,20.77
2019-04-28T05:39:52.581Z,19.60
2019-04-28T05:42:21.286Z,21.33
2019-04-28T05:44:50.118Z,21.00
2019-04-28T05:47:20.298Z,20.00
2019-04-28T05:50:10.639Z,20.90
2019-04-28T05:53:04.080Z,20.70
2019-04-28T05:55:41.920Z,20.60
2019-04-28T05:58:19.808Z,20.30
2019-04-28T06:01:20.465Z,20.40
2019-04-28T06:03:49.757Z,20.10
2019-04-28T06:06:20.507Z,21.03
2019-04-28T06:09:14.837Z,20.23
2019-04-28T06:11:44.297Z,20.03
2019-04-28T06:14:13.023Z,20.20
2019-04-28T06:16:41.823Z,20.60
2019-04-28T06:19:10.918Z,21.37
2019-04-28T06:21:39.880Z,21.70
2019-04-28T06:24:09.129Z,21.13
2019-04-28T06:26:38.328Z,21.30
2019-04-28T06:29:07.308Z,21.30
2019-04-28T06:31:36.267Z,20.50
2019-04-28T06:34:05.153Z,20.40
2019-04-28T06:36:33.966Z,20.13
2019-04-28T06:39:03.825Z,20.97
2019-04-28T06:41:32.890Z,21.57
2019-04-28T06:44:01.654Z,20.80
2019-04-28T06:46:31.115Z,20.23
2019-04-28T06:49:00.414Z,22.17
2019-04-28T06:51:29.421Z,20.63
2019-04-28T06:53:58.243Z,21.30
2019-04-28T06:56:27.450Z,21.73
2019-04-28T06:58:59.141Z,21.60
2019-04-28T07:01:26.913Z,21.57
2019-04-28T07:03:56.685Z,21.57
2019-04-28T07:06:25.494Z,21.67
2019-04-28T07:08:54.289Z,23.87
2019-04-28T07:11:23.312Z,23.73
2019-04-28T07:13:52.089Z,23.27
2019-04-28T07:16:21.270Z,22.50
2019-04-28T07:18:50.113Z,23.13
2019-04-28T07:21:31.773Z,23.83
2019-04-28T07:24:00.848Z,23.33
2019-04-28T07:26:29.743Z,22.90
2019-04-28T07:28:58.494Z,22.10
2019-04-28T07:31:27.448Z,23.10
2019-04-28T07:33:56.292Z,22.57
2019-04-28T07:36:25.134Z,23.57
2019-04-28T07:38:53.998Z,21.97
2019-04-28T07:41:22.827Z,21.30
2019-04-28T07:43:51.993Z,23.87
2019-04-28T07:46:20.929Z,23.27
2019-04-28T07:48:52.279Z,22.93
2019-04-28T07:51:22.068Z,22.80
2019-04-28T07:53:55.128Z,22.13
2019-04-28T07:56:24.297Z,23.33
2019-04-28T07:58:53.196Z,23.10
2019-04-28T08:01:22.146Z,22.70
2019-04-28T08:03:51.152Z,24.40
2019-04-28T08:06:23.188Z,24.50
2019-04-28T08:08:52.023Z,22.53
2019-04-28T08:11:20.877Z,22.27
2019-04-28T08:13:50.045Z,22.57
2019-04-28T08:16:18.841Z,24.17
2019-04-28T08:18:47.717Z,22.70
2019-04-28T08:21:16.643Z,23.10
2019-04-28T08:23:47.464Z,21.27
2019-04-28T08:26:16.231Z,21.87
2019-04-28T08:28:45.306Z,23.00
2019-04-28T08:31:15.972Z,22.80
2019-04-28T08:34:01.628Z,25.93
2019-04-28T08:36:22.434Z,23.90
2019-04-28T08:38:51.254Z,24.27
2019-04-28T08:41:20.049Z,25.47
2019-04-28T08:43:49.371Z,23.30
2019-04-28T08:46:18.828Z,27.00
2019-04-28T08:48:47.743Z,24.90
2019-04-28T08:51:16.667Z,24.57
2019-04-28T08:53:45.508Z,24.40
2019-04-28T08:56:14.275Z,24.70
2019-04-28T08:58:43.158Z,26.10
2019-04-28T09:01:14.354Z,25.23
2019-04-28T09:03:43.139Z,25.50
2019-04-28T09:06:11.891Z,29.43
2019-04-28T09:08:40.739Z,24.93
2019-04-28T09:11:09.670Z,26.30
2019-04-28T09:13:38.478Z,28.83
2019-04-28T09:16:07.248Z,27.40
2019-04-28T09:18:36.034Z,25.33
2019-04-28T09:21:04.804Z,31.40
2019-04-28T09:23:33.567Z,25.07
2019-04-28T09:26:02.609Z,25.03
2019-04-28T09:28:31.343Z,26.73
2019-04-28T09:31:00.589Z,26.30
2019-04-28T09:33:29.316Z,23.47
2019-04-28T09:35:58.146Z,23.53
2019-04-28T09:38:26.867Z,26.87
2019-04-28T09:40:55.700Z,25.40
2019-04-28T09:43:46.621Z,26.17
2019-04-28T09:46:22.096Z,26.10
2019-04-28T09:48:50.923Z,26.43
2019-04-28T09:51:19.992Z,26.77
2019-04-28T09:53:48.817Z,27.40
2019-04-28T09:56:17.545Z,29.60
2019-04-28T09:58:47.671Z,29.53
2019-04-28T10:01:16.440Z,30.60
2019-04-28T10:03:45.177Z,30.43
2019-04-28T10:06:13.956Z,29.33
2019-04-28T10:08:42.683Z,29.23
2019-04-28T10:11:11.419Z,30.40
2019-04-28T10:13:40.162Z,29.80
2019-04-28T10:16:09.040Z,29.20
2019-04-28T10:18:37.899Z,31.00
2019-04-28T10:21:06.722Z,28.10
2019-04-28T10:23:35.495Z,28.93
2019-04-28T10:26:04.285Z,29.23
2019-04-28T10:28:33.100Z,25.20
2019-04-28T10:31:03.686Z,27.47
2019-04-28T10:33:32.956Z,28.70
2019-04-28T10:36:02.735Z,29.90
2019-04-28T10:38:31.495Z,30.50
2019-04-28T10:41:07.605Z,27.87
2019-04-28T10:43:36.426Z,29.90
2019-04-28T10:46:05.288Z,29.10
2019-04-28T10:48:34.123Z,28.10
2019-04-28T10:51:03.000Z,28.27
2019-04-28T10:53:32.114Z,29.53
2019-04-28T10:56:01.294Z,28.30
2019-04-28T10:58:30.161Z,28.13
2019-04-28T11:00:59.360Z,29.20
2019-04-28T11:03:28.207Z,29.93
2019-04-28T11:05:57.202Z,29.50
2019-04-28T11:08:36.463Z,28.97
2019-04-28T11:11:12.768Z,49.93
2019-04-28T11:13:41.972Z,30.10
2019-04-28T11:16:12.699Z,30.23
2019-04-28T11:18:41.584Z,28.43
2019-04-28T11:21:10.455Z,30.13
2019-04-28T11:23:39.991Z,29.73
2019-04-28T11:26:08.783Z,26.60
2019-04-28T11:28:37.941Z,27.00
2019-04-28T11:31:07.305Z,27.10
2019-04-28T11:33:42.686Z,26.33
2019-04-28T11:36:11.548Z,26.80
2019-04-28T11:38:40.595Z,31.80
2019-04-28T11:41:11.576Z,29.30
2019-04-28T11:43:40.170Z,27.70
2019-04-28T11:46:10.803Z,27.63
2019-04-28T11:48:39.969Z,26.33
2019-04-28T11:51:08.948Z,25.77
2019-04-28T11:53:37.937Z,27.07
2019-04-28T11:56:06.848Z,27.57
2019-04-28T11:58:36.771Z,27.40
2019-04-28T12:01:08.340Z,26.60
2019-04-28T12:03:37.313Z,26.30
2019-04-28T12:06:06.392Z,26.10
2019-04-28T12:08:35.260Z,26.70
2019-04-28T12:11:28.476Z,25.33
2019-04-28T12:14:04.850Z,25.40
2019-04-28T12:16:52.756Z,25.03
2019-04-28T12:19:35.202Z,25.63
2019-04-28T12:22:04.472Z,25.20
2019-04-28T12:24:33.423Z,27.20
2019-04-28T12:27:02.186Z,25.80
2019-04-28T12:29:31.018Z,25.30
2019-04-28T12:32:00.184Z,27.20
2019-04-28T12:34:29.279Z,25.00
2019-04-28T12:36:58.088Z,26.00
2019-04-28T12:39:26.899Z,25.50
2019-04-28T12:41:55.739Z,27.63
2019-04-28T12:44:25.319Z,26.80
2019-04-28T12:46:54.825Z,27.47
2019-04-28T12:49:29.235Z,25.63
2019-04-28T12:51:58.018Z,24.30
2019-04-28T12:54:29.315Z,29.97
2019-04-28T12:56:58.230Z,26.77
2019-04-28T12:59:32.681Z,23.47
2019-04-28T13:02:18.688Z,24.30
2019-04-28T13:04:53.707Z,24.70
2019-04-28T13:07:22.700Z,24.30
2019-04-28T13:09:51.652Z,25.17
2019-04-28T13:12:20.613Z,24.80
2019-04-28T13:14:49.966Z,23.30
2019-04-28T13:17:18.919Z,23.30
2019-04-28T13:19:47.855Z,22.80
2019-04-28T13:22:17.297Z,22.73
2019-04-28T13:24:46.467Z,24.90
2019-04-28T13:27:15.330Z,23.63
2019-04-28T13:29:44.132Z,30.97
2019-04-28T13:32:12.926Z,23.60
2019-04-28T13:34:42.021Z,23.93
2019-04-28T13:37:11.089Z,33.83
2019-04-28T13:39:48.758Z,23.40
2019-04-28T13:42:17.666Z,23.20
2019-04-28T13:45:00.385Z,23.53
2019-04-28T13:47:29.440Z,23.73
2019-04-28T13:50:16.488Z,23.83
2019-04-28T13:52:45.544Z,23.63
2019-04-28T13:55:33.276Z,23.67
2019-04-28T13:58:03.248Z,24.47
2019-04-28T14:00:41.836Z,22.80
2019-04-28T14:03:20.594Z,22.07
2019-04-28T14:05:57.707Z,22.90
2019-04-28T14:08:27.150Z,22.40
2019-04-28T14:10:56.329Z,24.80
2019-04-28T14:13:25.630Z,26.10
2019-04-28T14:15:54.728Z,30.47
2019-04-28T14:18:24.086Z,57.90
2019-04-28T14:20:52.921Z,27.37
2019-04-28T14:23:22.000Z,26.00
2019-04-28T14:25:51.184Z,22.90
2019-04-28T14:28:20.076Z,23.63
2019-04-28T14:30:49.021Z,22.30
2019-04-28T14:33:17.861Z,23.20
2019-04-28T14:35:46.873Z,21.80
2019-04-28T14:38:15.691Z,23.20
2019-04-28T14:40:44.585Z,23.27
2019-04-28T14:43:13.468Z,22.50
2019-04-28T14:45:42.413Z,22.20
2019-04-28T14:48:11.146Z,22.97
2019-04-28T14:50:40.021Z,24.43
2019-04-28T14:53:09.057Z,30.47
2019-04-28T14:55:38.056Z,23.30
2019-04-28T14:58:07.187Z,22.57
2019-04-28T15:00:40.647Z,24.90
2019-04-28T15:03:11.722Z,22.73
2019-04-28T15:05:49.659Z,23.93
2019-04-28T15:08:32.074Z,23.17
2019-04-28T15:11:22.569Z,23.57
2019-04-28T15:13:51.292Z,23.13
2019-04-28T15:16:20.555Z,23.93
2019-04-28T15:18:49.571Z,23.37
2019-04-28T15:21:18.761Z,23.50
2019-04-28T15:23:47.695Z,23.80
2019-04-28T15:26:16.640Z,22.80
2019-04-28T15:28:45.804Z,23.17
2019-04-28T15:31:14.853Z,23.30
2019-04-28T15:33:43.751Z,23.13
2019-04-28T15:36:12.916Z,24.30
2019-04-28T15:38:41.725Z,23.10
2019-04-28T15:41:20.883Z,23.53
2019-04-28T15:43:41.100Z,24.20
2019-04-28T15:46:09.997Z,23.33
2019-04-28T15:48:38.871Z,24.47
2019-04-28T15:51:07.766Z,24.33
2019-04-28T15:53:36.705Z,24.20
2019-04-28T15:56:24.760Z,23.57
2019-04-28T15:58:56.598Z,23.37
2019-04-28T16:01:24.668Z,22.70
2019-04-28T16:03:53.464Z,23.90
2019-04-28T16:06:22.202Z,25.93
2019-04-28T16:08:51.506Z,37.20
2019-04-28T16:11:20.331Z,26.13
2019-04-28T16:13:49.180Z,24.37
2019-04-28T16:16:18.001Z,23.80
2019-04-28T16:18:47.544Z,24.20
2019-04-28T16:21:16.383Z,24.57
2019-04-28T16:23:45.544Z,24.67
2019-04-28T16:26:14.776Z,23.20
2019-04-28T16:28:44.012Z,24.70
2019-04-28T16:31:12.911Z,22.60
2019-04-28T16:33:41.786Z,23.43
2019-04-28T16:36:10.576Z,27.63
2019-04-28T16:38:39.558Z,23.17
2019-04-28T16:41:09.882Z,24.53
2019-04-28T16:43:42.778Z,22.93
2019-04-28T16:46:11.584Z,24.17
2019-04-28T16:48:40.652Z,30.70
2019-04-28T16:51:09.493Z,23.07
2019-04-28T16:53:38.340Z,23.90
2019-04-28T16:56:13.306Z,23.60
2019-04-28T16:59:06.220Z,24.50
2019-04-28T17:01:43.093Z,24.77
2019-04-28T17:04:12.394Z,23.27
2019-04-28T17:06:41.312Z,22.23
2019-04-28T17:09:11.687Z,25.10
2019-04-28T17:11:40.520Z,24.10
2019-04-28T17:14:09.584Z,22.90
2019-04-28T17:16:38.602Z,26.87
2019-04-28T17:19:07.525Z,23.77
2019-04-28T17:21:36.485Z,23.70
2019-04-28T17:24:05.315Z,23.03
2019-04-28T17:26:34.236Z,24.27
2019-04-28T17:29:03.512Z,23.40
2019-04-28T17:31:32.410Z,23.10
2019-04-28T17:34:01.551Z,30.23
2019-04-28T17:36:30.874Z,25.00
2019-04-28T17:38:59.971Z,23.13
2019-04-28T17:41:29.123Z,22.57
2019-04-28T17:43:58.151Z,23.10
2019-04-28T17:46:26.960Z,23.70
2019-04-28T17:48:57.779Z,23.90
2019-04-28T17:51:26.783Z,23.77
2019-04-28T17:53:55.724Z,23.13
2019-04-28T17:56:24.870Z,23.07
2019-04-28T17:58:53.763Z,23.67
2019-04-28T18:01:47.549Z,22.40
2019-04-28T18:04:34.341Z,23.73
2019-04-28T18:07:08.722Z,24.03
2019-04-28T18:09:37.589Z,22.97
2019-04-28T18:12:06.629Z,24.10
2019-04-28T18:14:36.400Z,23.43
2019-04-28T18:17:14.872Z,24.07
2019-04-28T18:19:43.854Z,22.30
2019-04-28T18:22:13.063Z,23.73
2019-04-28T18:24:42.169Z,23.47
2019-04-28T18:27:11.283Z,22.50
2019-04-28T18:29:40.232Z,23.73
2019-04-28T18:32:27.044Z,23.80
2019-04-28T18:35:07.732Z,22.87
2019-04-28T18:37:55.871Z,23.93
2019-04-28T18:40:42.993Z,23.17
2019-04-28T18:43:37.699Z,23.93
2019-04-28T18:46:06.822Z,23.23
2019-04-28T18:48:36.312Z,23.00
2019-04-28T18:51:05.322Z,24.97
2019-04-28T18:53:34.332Z,24.37
2019-04-28T18:56:03.314Z,26.97
2019-04-28T18:58:32.476Z,25.10
2019-04-28T19:01:11.208Z,24.37
2019-04-28T19:03:40.225Z,25.97
2019-04-28T19:06:09.058Z,25.40
2019-04-28T19:08:52.404Z,23.53
2019-04-28T19:11:38.032Z,24.23
2019-04-28T19:14:27.129Z,23.83
2019-04-28T19:17:11.975Z,23.70
2019-04-28T19:19:41.002Z,22.43
2019-04-28T19:22:09.769Z,24.70
2019-04-28T19:24:38.636Z,24.77
2019-04-28T19:27:07.508Z,23.03
2019-04-28T19:29:36.469Z,23.97
2019-04-28T19:32:05.719Z,23.70
2019-04-28T19:34:34.602Z,23.47
2019-04-28T19:37:09.392Z,23.50
2019-04-28T19:39:40.788Z,23.70
2019-04-28T19:42:09.069Z,25.33
2019-04-28T19:44:37.872Z,24.20
2019-04-28T19:47:06.740Z,23.50
2019-04-28T19:49:35.611Z,23.70
2019-04-28T19:52:04.711Z,23.20
2019-04-28T19:54:37.222Z,24.07
2019-04-28T19:57:23.778Z,28.90
2019-04-28T20:00:10.716Z,26.03
2019-04-28T20:02:39.590Z,34.77
2019-04-28T20:05:08.810Z,32.70
2019-04-28T20:07:40.746Z,27.10
2019-04-28T20:10:08.236Z,24.07
2019-04-28T20:12:36.996Z,23.30
2019-04-28T20:15:05.948Z,25.50
2019-04-28T20:17:34.752Z,24.30
2019-04-28T20:20:03.660Z,25.27
2019-04-28T20:22:32.387Z,24.50
2019-04-28T20:25:01.209Z,24.50
2019-04-28T20:27:30.066Z,24.60
2019-04-28T20:29:58.823Z,24.17
2019-04-28T20:32:27.891Z,25.13
2019-04-28T20:34:57.243Z,25.10
2019-04-28T20:37:34.316Z,23.63
2019-04-28T20:40:08.164Z,23.70
2019-04-28T20:42:51.464Z,23.93
2019-04-28T20:45:20.310Z,24.70
2019-04-28T20:47:49.610Z,23.40
2019-04-28T20:50:18.517Z,24.53
2019-04-28T20:52:47.872Z,23.60
2019-04-28T20:55:16.732Z,23.57
2019-04-28T20:57:45.659Z,23.47
2019-04-28T21:00:14.900Z,23.30
2019-04-28T21:02:43.975Z,23.93
2019-04-28T21:05:12.953Z,23.30
2019-04-28T21:07:41.795Z,23.67
2019-04-28T21:10:10.797Z,25.50
2019-04-28T21:12:39.568Z,24.67
2019-04-28T21:15:09.241Z,23.30
2019-04-28T21:17:38.255Z,23.60
2019-04-28T21:20:07.494Z,23.00
2019-04-28T21:22:36.468Z,23.70
2019-04-28T21:25:05.963Z,22.37
2019-04-28T21:27:34.827Z,23.73
2019-04-28T21:30:04.098Z,23.37
2019-04-28T21:32:52.197Z,24.10
2019-04-28T21:35:21.180Z,23.37
2019-04-28T21:37:50.535Z,25.57
2019-04-28T21:40:19.632Z,23.47
2019-04-28T21:43:13.672Z,24.20
2019-04-28T21:46:00.989Z,23.50
2019-04-28T21:48:36.659Z,23.20
2019-04-28T21:51:05.470Z,23.03
2019-04-28T21:53:34.217Z,23.97
2019-04-28T21:56:03.030Z,23.63
2019-04-28T21:58:33.289Z,24.80
2019-04-28T22:01:02.782Z,23.90
2019-04-28T22:03:31.587Z,23.90
2019-04-28T22:06:00.393Z,24.27
2019-04-28T22:08:29.248Z,23.60
2019-04-28T22:10:58.000Z,24.63
2019-04-28T22:13:26.811Z,23.80
2019-04-28T22:15:55.592Z,24.13
2019-04-28T22:18:24.350Z,24.97
2019-04-28T22:20:53.100Z,25.30
2019-04-28T22:23:28.630Z,23.80
2019-04-28T22:25:57.413Z,24.20
2019-04-28T22:28:26.524Z,23.50
2019-04-28T22:30:55.304Z,23.37
2019-04-28T22:33:24.056Z,23.20
2019-04-28T22:35:53.060Z,22.90
2019-04-28T22:38:21.796Z,23.80
2019-04-28T22:40:50.872Z,23.20
2019-04-28T22:43:19.691Z,23.27
2019-04-28T22:45:48.782Z,22.90
2019-04-28T22:48:21.912Z,23.40
2019-04-28T22:50:52.274Z,23.33
2019-04-28T22:53:24.674Z,22.00
2019-04-28T22:55:59.886Z,23.50
2019-04-28T22:58:39.374Z,22.60
2019-04-28T23:01:13.560Z,23.53
2019-04-28T23:03:48.400Z,22.83
2019-04-28T23:06:17.632Z,23.40
2019-04-28T23:08:46.386Z,22.47
2019-04-28T23:11:15.139Z,24.23
2019-04-28T23:13:44.499Z,22.97
2019-04-28T23:16:13.378Z,23.50
2019-04-28T23:18:42.735Z,23.80
2019-04-28T23:21:19.859Z,22.77
2019-04-28T23:23:48.683Z,23.20
2019-04-28T23:26:17.480Z,23.33
2019-04-28T23:28:46.752Z,21.63
2019-04-28T23:31:15.854Z,23.00
2019-04-28T23:33:44.707Z,22.50
2019-04-28T23:36:13.479Z,24.10
2019-04-28T23:38:42.570Z,24.07
2019-04-28T23:41:29.110Z,21.97
2019-04-28T23:43:58.115Z,23.67
2019-04-28T23:46:46.003Z,23.37
2019-04-28T23:49:14.770Z,23.40
2019-04-28T23:51:49.963Z,23.60
2019-04-28T23:54:18.771Z,22.70
2019-04-28T23:56:47.874Z,22.40
2019-04-28T23:59:16.975Z,21.30
